createdAt,value
2023-03-11T00:00:46.317Z,4.22
2023-03-11T00:03:14.887Z,4.15
2023-03-11T00:05:43.184Z,3.96
2023-03-11T00:08:14.284Z,3.84
2023-03-11T00:10:43.137Z,3.78
2023-03-11T00:13:12.496Z,3.73
2023-03-11T00:15:39.734Z,3.65
2023-03-11T00:18:07.016Z,3.63
2023-03-11T00:20:36.106Z,3.48
2023-03-11T00:23:03.638Z,3.39
2023-03-11T00:25:32.345Z,3.33
2023-03-11T00:27:59.524Z,3.28
2023-03-11T00:30:27.201Z,3.17
2023-03-11T00:32:56.152Z,3.12
2023-03-11T00:35:28.634Z,3.01
2023-03-11T00:37:58.194Z,2.87
2023-03-11T00:40:26.487Z,2.86
2023-03-11T00:42:53.074Z,2.92
2023-03-11T00:45:20.047Z,2.95
2023-03-11T00:47:46.823Z,2.89
2023-03-11T00:50:20.119Z,2.87
2023-03-11T00:52:47.578Z,2.86
2023-03-11T00:55:17.079Z,2.87
2023-03-11T00:57:44.228Z,2.89
2023-03-11T01:00:16.017Z,2.88
2023-03-11T01:02:42.588Z,2.76
2023-03-11T01:05:10.183Z,2.69
2023-03-11T01:07:37.020Z,2.56
2023-03-11T01:10:05.051Z,2.42
2023-03-11T01:12:31.536Z,2.35
2023-03-11T01:14:58.186Z,2.22
2023-03-11T01:17:24.676Z,2.14
2023-03-11T01:19:51.225Z,2.09
2023-03-11T01:22:17.803Z,2.02
2023-03-11T01:24:44.580Z,1.92
2023-03-11T01:27:11.147Z,1.89
2023-03-11T01:29:37.705Z,1.83
2023-03-11T01:32:04.622Z,1.76
2023-03-11T01:34:31.126Z,1.71
2023-03-11T01:36:57.696Z,1.72
2023-03-11T01:39:24.208Z,1.72
2023-03-11T01:41:53.038Z,1.73
2023-03-11T01:44:19.562Z,1.69
2023-03-11T01:47:11.871Z,1.68
2023-03-11T01:49:42.050Z,1.67
2023-03-11T01:52:09.737Z,1.71
2023-03-11T01:54:39.622Z,1.68
2023-03-11T01:57:09.472Z,1.62
2023-03-11T01:59:47.586Z,1.55
2023-03-11T02:02:30.938Z,1.46
2023-03-11T02:05:00.004Z,1.39
2023-03-11T02:07:26.589Z,1.30
2023-03-11T02:09:53.095Z,1.36
2023-03-11T02:12:20.217Z,1.27
2023-03-11T02:14:50.524Z,1.27
2023-03-11T02:17:17.567Z,1.20
2023-03-11T02:20:06.356Z,1.24
2023-03-11T02:22:33.759Z,1.30
2023-03-11T02:25:11.683Z,1.41
2023-03-11T02:27:41.639Z,1.56
2023-03-11T02:30:10.877Z,1.65
2023-03-11T02:32:38.100Z,1.64
2023-03-11T02:35:05.882Z,1.53
2023-03-11T02:37:32.639Z,1.33
2023-03-11T02:40:37.419Z,1.16
2023-03-11T02:43:09.560Z,1.10
2023-03-11T02:45:39.962Z,0.96
2023-03-11T02:48:08.809Z,0.87
2023-03-11T02:50:37.220Z,0.93
2023-03-11T02:53:05.630Z,0.80
2023-03-11T02:55:32.298Z,0.80
2023-03-11T02:57:58.787Z,0.68
2023-03-11T03:00:25.733Z,0.57
2023-03-11T03:02:52.420Z,0.60
2023-03-11T03:05:20.865Z,0.59
2023-03-11T03:07:48.336Z,0.56
2023-03-11T03:10:16.233Z,0.48
2023-03-11T03:12:42.859Z,0.47
2023-03-11T03:15:10.824Z,0.39
2023-03-11T03:17:37.824Z,0.35
2023-03-11T03:20:09.168Z,0.45
2023-03-11T03:22:35.653Z,0.44
2023-03-11T03:25:02.133Z,0.39
2023-03-11T03:27:28.579Z,0.36
2023-03-11T03:29:55.097Z,0.36
2023-03-11T03:32:21.666Z,0.46
2023-03-11T03:34:48.191Z,0.41
2023-03-11T03:37:14.698Z,0.46
2023-03-11T03:39:41.207Z,0.40
2023-03-11T03:42:08.080Z,0.44
2023-03-11T03:44:34.575Z,0.42
2023-03-11T03:47:01.105Z,0.37
2023-03-11T03:49:27.576Z,0.41
2023-03-11T03:51:54.103Z,0.36
2023-03-11T03:54:20.591Z,0.27
2023-03-11T03:56:47.119Z,0.22
2023-03-11T03:59:13.605Z,0.31
2023-03-11T04:01:40.169Z,0.36
2023-03-11T04:04:06.988Z,0.32
2023-03-11T04:06:33.516Z,0.27
2023-03-11T04:09:00.027Z,0.25
2023-03-11T04:11:26.589Z,0.40
2023-03-11T04:13:53.414Z,0.32
2023-03-11T04:16:23.746Z,0.31
2023-03-11T04:18:50.381Z,0.34
2023-03-11T04:21:16.961Z,0.31
2023-03-11T04:23:43.512Z,0.29
2023-03-11T04:26:10.447Z,0.24
2023-03-11T04:28:36.968Z,0.15
2023-03-11T04:31:03.737Z,0.17
2023-03-11T04:33:30.404Z,0.21
2023-03-11T04:35:57.504Z,0.23
2023-03-11T04:38:24.432Z,0.30
2023-03-11T04:40:50.919Z,0.28
2023-03-11T04:43:17.435Z,0.30
2023-03-11T04:45:43.925Z,0.21
2023-03-11T04:48:10.470Z,0.27
2023-03-11T04:50:37.107Z,0.25
2023-03-11T04:53:03.794Z,0.27
2023-03-11T04:55:30.297Z,0.28
2023-03-11T04:57:56.785Z,0.23
2023-03-11T05:00:25.025Z,0.30
2023-03-11T05:02:51.994Z,0.41
2023-03-11T05:05:21.269Z,0.34
2023-03-11T05:07:48.827Z,0.31
2023-03-11T05:10:22.200Z,0.25
2023-03-11T05:12:51.924Z,0.28
2023-03-11T05:15:19.243Z,0.27
2023-03-11T05:17:46.109Z,0.24
2023-03-11T05:20:15.096Z,0.22
2023-03-11T05:22:42.382Z,0.21
2023-03-11T05:25:09.463Z,0.24
2023-03-11T05:27:35.955Z,0.37
2023-03-11T05:30:02.740Z,0.47
2023-03-11T05:32:29.274Z,0.58
2023-03-11T05:34:55.805Z,0.69
2023-03-11T05:37:22.334Z,0.77
2023-03-11T05:39:49.023Z,0.86
2023-03-11T05:42:15.497Z,0.89
2023-03-11T05:44:42.092Z,0.93
2023-03-11T05:47:08.581Z,0.99
2023-03-11T05:49:35.109Z,1.04
2023-03-11T05:52:01.629Z,1.08
2023-03-11T05:54:28.244Z,1.12
2023-03-11T05:56:55.849Z,1.14
2023-03-11T05:59:23.282Z,1.16
2023-03-11T06:01:49.902Z,1.19
2023-03-11T06:04:16.549Z,1.28
2023-03-11T06:06:43.256Z,1.36
2023-03-11T06:09:14.253Z,1.37
2023-03-11T06:11:41.291Z,1.39
2023-03-11T06:14:11.520Z,1.41
2023-03-11T06:16:38.194Z,1.41
2023-03-11T06:19:04.779Z,1.41
2023-03-11T06:21:31.525Z,1.42
2023-03-11T06:23:57.995Z,1.49
2023-03-11T06:26:25.018Z,1.54
2023-03-11T06:28:52.656Z,1.52
2023-03-11T06:31:28.041Z,1.50
2023-03-11T06:33:59.252Z,1.53
2023-03-11T06:36:26.026Z,1.60
2023-03-11T06:38:53.798Z,1.66
2023-03-11T06:41:20.469Z,1.81
2023-03-11T06:43:47.009Z,1.83
2023-03-11T06:46:22.242Z,1.78
2023-03-11T06:48:52.588Z,1.74
2023-03-11T06:51:20.698Z,1.78
2023-03-11T06:53:52.423Z,1.82
2023-03-11T06:56:20.691Z,1.82
2023-03-11T06:58:48.079Z,1.82
2023-03-11T07:01:16.951Z,1.90
2023-03-11T07:03:45.370Z,2.00
2023-03-11T07:06:20.952Z,2.14
2023-03-11T07:08:48.893Z,2.10
2023-03-11T07:11:18.172Z,2.34
2023-03-11T07:13:44.969Z,2.59
2023-03-11T07:16:19.865Z,2.63
2023-03-11T07:18:47.814Z,2.79
2023-03-11T07:21:17.603Z,2.79
2023-03-11T07:23:44.630Z,2.66
2023-03-11T07:26:12.926Z,2.71
2023-03-11T07:28:40.132Z,3.26
2023-03-11T07:31:08.642Z,4.27
2023-03-11T07:33:35.706Z,5.47
2023-03-11T07:36:06.465Z,6.30
2023-03-11T07:38:33.001Z,7.70
2023-03-11T07:41:00.220Z,8.70
2023-03-11T07:43:27.010Z,8.22
2023-03-11T07:46:22.814Z,8.42
2023-03-11T07:48:50.900Z,9.36
2023-03-11T07:51:24.931Z,10.14
2023-03-11T07:53:53.408Z,10.00
2023-03-11T07:56:21.339Z,10.33
2023-03-11T07:58:47.832Z,10.27
2023-03-11T08:01:17.745Z,10.21
2023-03-11T08:03:46.075Z,10.70
2023-03-11T08:06:24.313Z,10.38
2023-03-11T08:08:51.579Z,9.50
2023-03-11T08:11:19.228Z,9.45
2023-03-11T08:13:46.630Z,9.71
2023-03-11T08:16:16.201Z,9.60
2023-03-11T08:18:43.357Z,9.86
2023-03-11T08:21:13.728Z,10.40
2023-03-11T08:23:40.714Z,10.68
2023-03-11T08:26:10.100Z,10.72
2023-03-11T08:28:37.677Z,10.63
2023-03-11T08:31:22.293Z,10.56
2023-03-11T08:33:50.625Z,10.60
2023-03-11T08:36:18.108Z,10.59
2023-03-11T08:38:44.758Z,10.45
2023-03-11T08:41:11.996Z,11.06
2023-03-11T08:43:40.788Z,11.03
2023-03-11T08:46:07.594Z,10.83
2023-03-11T08:48:36.710Z,11.36
2023-03-11T08:51:09.982Z,11.42
2023-03-11T08:53:37.735Z,11.22
2023-03-11T08:56:04.772Z,11.07
2023-03-11T08:58:31.312Z,10.93
2023-03-11T09:00:57.874Z,10.90
2023-03-11T09:03:24.376Z,11.13
2023-03-11T09:06:00.532Z,11.69
2023-03-11T09:08:28.304Z,11.29
2023-03-11T09:10:54.972Z,10.92
2023-03-11T09:13:21.688Z,11.12
2023-03-11T09:15:50.056Z,10.81
2023-03-11T09:18:17.756Z,10.56
2023-03-11T09:20:44.699Z,10.39
2023-03-11T09:23:13.714Z,10.79
2023-03-11T09:25:40.285Z,10.70
2023-03-11T09:28:06.897Z,10.49
2023-03-11T09:30:33.563Z,10.89
2023-03-11T09:33:00.229Z,11.09
2023-03-11T09:35:26.855Z,11.91
2023-03-11T09:37:53.440Z,12.61
2023-03-11T09:40:23.901Z,13.15
2023-03-11T09:42:59.417Z,13.64
2023-03-11T09:45:29.948Z,13.04
2023-03-11T09:48:32.685Z,12.95
2023-03-11T09:51:20.888Z,13.11
2023-03-11T09:53:55.213Z,12.34
2023-03-11T09:56:22.646Z,12.07
2023-03-11T09:58:52.568Z,12.29
2023-03-11T10:01:29.464Z,11.65
2023-03-11T10:04:01.240Z,11.53
2023-03-11T10:06:31.364Z,11.47
2023-03-11T10:09:05.160Z,11.39
2023-03-11T10:11:47.004Z,11.43
2023-03-11T10:14:16.214Z,11.47
2023-03-11T10:16:51.717Z,11.48
2023-03-11T10:19:33.319Z,11.34
2023-03-11T10:22:13.847Z,10.87
2023-03-11T10:24:49.320Z,11.33
2023-03-11T10:27:26.421Z,10.91
2023-03-11T10:30:24.430Z,10.79
2023-03-11T10:33:13.123Z,12.03
2023-03-11T10:35:42.612Z,11.44
2023-03-11T10:38:15.074Z,11.33
2023-03-11T10:40:44.581Z,11.19
2023-03-11T10:43:29.148Z,10.46
2023-03-11T10:45:55.812Z,9.37
2023-03-11T10:48:24.559Z,8.63
2023-03-11T10:50:58.556Z,9.89
2023-03-11T10:53:25.093Z,10.68
2023-03-11T10:55:54.676Z,10.79
2023-03-11T10:58:24.293Z,11.74
2023-03-11T11:01:13.770Z,11.74
2023-03-11T11:03:46.926Z,11.79
2023-03-11T11:06:25.322Z,12.41
2023-03-11T11:09:19.495Z,13.02
2023-03-11T11:12:14.954Z,13.53
2023-03-11T11:14:50.722Z,13.42
2023-03-11T11:17:31.619Z,12.70
2023-03-11T11:19:59.506Z,13.73
2023-03-11T11:22:26.622Z,14.14
2023-03-11T11:24:55.161Z,14.81
2023-03-11T11:27:29.272Z,15.30
2023-03-11T11:30:08.791Z,14.83
2023-03-11T11:32:36.378Z,13.91
2023-03-11T11:35:11.027Z,13.10
2023-03-11T11:37:41.683Z,11.34
2023-03-11T11:40:14.419Z,11.29
2023-03-11T11:42:46.597Z,12.48
2023-03-11T11:45:24.424Z,13.12
2023-03-11T11:47:55.675Z,15.27
2023-03-11T11:50:32.282Z,18.88
2023-03-11T11:53:15.122Z,22.79
2023-03-11T11:55:47.781Z,19.22
2023-03-11T11:58:14.808Z,15.83
2023-03-11T12:01:06.751Z,15.01
2023-03-11T12:03:51.568Z,13.52
2023-03-11T12:06:34.672Z,18.00
2023-03-11T12:09:05.788Z,17.89
2023-03-11T12:11:47.636Z,21.36
2023-03-11T12:14:25.469Z,23.36
2023-03-11T12:16:59.277Z,21.26
2023-03-11T12:19:49.216Z,18.77
2023-03-11T12:22:34.815Z,16.60
2023-03-11T12:25:24.822Z,14.19
2023-03-11T12:27:55.589Z,13.81
2023-03-11T12:30:27.198Z,14.67
2023-03-11T12:33:01.649Z,18.35
2023-03-11T12:35:34.314Z,22.26
2023-03-11T12:38:12.847Z,25.09
2023-03-11T12:40:42.052Z,26.04
2023-03-11T12:43:33.841Z,25.96
2023-03-11T12:46:04.483Z,26.58
2023-03-11T12:48:42.868Z,27.88
2023-03-11T12:51:28.176Z,26.70
2023-03-11T12:53:55.991Z,21.67
2023-03-11T12:56:42.447Z,19.70
2023-03-11T12:59:33.486Z,21.84
2023-03-11T13:02:14.129Z,22.76
2023-03-11T13:05:05.376Z,23.97
2023-03-11T13:07:46.545Z,25.24
2023-03-11T13:10:37.445Z,25.73
2023-03-11T13:13:25.116Z,21.43
2023-03-11T13:15:52.917Z,19.95
2023-03-11T13:18:33.235Z,22.43
2023-03-11T13:21:01.674Z,23.85
2023-03-11T13:23:40.573Z,24.87
2023-03-11T13:26:09.808Z,25.00
2023-03-11T13:28:54.865Z,25.18
2023-03-11T13:31:49.075Z,25.44
2023-03-11T13:34:40.509Z,22.13
2023-03-11T13:37:25.381Z,21.33
2023-03-11T13:40:44.131Z,21.60
2023-03-11T13:43:16.881Z,20.78
2023-03-11T13:45:50.857Z,20.85
2023-03-11T13:48:24.913Z,21.30
2023-03-11T13:50:55.549Z,22.73
2023-03-11T13:53:31.032Z,22.78
2023-03-11T13:55:57.615Z,21.58
2023-03-11T13:58:26.638Z,21.86
2023-03-11T14:00:55.979Z,21.72
2023-03-11T14:03:25.520Z,21.91
2023-03-11T14:06:18.856Z,22.26
2023-03-11T14:08:56.972Z,21.74
2023-03-11T14:11:29.239Z,21.72
2023-03-11T14:13:55.816Z,21.89
2023-03-11T14:16:44.145Z,21.05
2023-03-11T14:19:18.709Z,20.21
2023-03-11T14:21:51.380Z,18.55
2023-03-11T14:24:23.674Z,16.57
2023-03-11T14:26:55.191Z,13.76
2023-03-11T14:29:36.954Z,12.46
2023-03-11T14:32:35.709Z,11.50
2023-03-11T14:35:02.568Z,10.75
2023-03-11T14:37:37.763Z,10.37
2023-03-11T14:40:21.960Z,10.09
2023-03-11T14:42:53.753Z,9.80
2023-03-11T14:45:23.363Z,9.54
2023-03-11T14:47:54.377Z,9.08
2023-03-11T14:50:27.273Z,8.92
2023-03-11T14:53:09.178Z,8.62
2023-03-11T14:55:41.163Z,8.32
2023-03-11T14:58:37.017Z,8.01
2023-03-11T15:01:13.417Z,7.82
2023-03-11T15:03:45.425Z,7.71
2023-03-11T15:06:16.134Z,7.64
2023-03-11T15:08:45.993Z,7.69
2023-03-11T15:11:12.438Z,7.68
2023-03-11T15:13:41.109Z,7.22
2023-03-11T15:16:34.440Z,6.77
2023-03-11T15:19:20.320Z,6.71
2023-03-11T15:21:49.034Z,6.84
2023-03-11T15:24:21.618Z,6.73
2023-03-11T15:27:01.423Z,6.83
2023-03-11T15:29:29.549Z,6.97
2023-03-11T15:31:57.406Z,7.03
2023-03-11T15:34:30.617Z,7.04
2023-03-11T15:37:01.972Z,6.96
2023-03-11T15:39:31.254Z,6.93
2023-03-11T15:42:02.156Z,6.93
2023-03-11T15:44:36.943Z,6.95
2023-03-11T15:47:04.219Z,6.94
2023-03-11T15:49:31.216Z,6.81
2023-03-11T15:52:02.130Z,6.75
2023-03-11T15:54:29.410Z,6.66
2023-03-11T15:56:58.589Z,6.57
2023-03-11T15:59:25.619Z,6.41
2023-03-11T16:01:52.169Z,6.31
2023-03-11T16:04:20.348Z,6.26
2023-03-11T16:06:56.651Z,6.09
2023-03-11T16:09:26.086Z,6.12
2023-03-11T16:11:52.553Z,6.03
2023-03-11T16:14:20.712Z,5.94
2023-03-11T16:16:47.529Z,5.70
2023-03-11T16:19:14.208Z,5.52
2023-03-11T16:21:45.127Z,5.28
2023-03-11T16:24:19.031Z,5.07
2023-03-11T16:26:45.985Z,4.90
2023-03-11T16:29:18.944Z,4.75
2023-03-11T16:31:46.870Z,4.57
2023-03-11T16:34:13.463Z,4.44
2023-03-11T16:36:40.010Z,4.29
2023-03-11T16:39:06.826Z,4.19
2023-03-11T16:41:44.486Z,4.08
2023-03-11T16:44:11.473Z,3.96
2023-03-11T16:46:38.582Z,3.86
2023-03-11T16:49:05.411Z,3.79
2023-03-11T16:51:32.753Z,3.67
2023-03-11T16:54:00.119Z,3.61
2023-03-11T16:56:27.131Z,3.52
2023-03-11T16:58:53.861Z,3.52
2023-03-11T17:01:21.771Z,3.50
2023-03-11T17:03:49.886Z,3.49
2023-03-11T17:06:20.796Z,3.50
2023-03-11T17:08:49.477Z,3.48
2023-03-11T17:11:29.448Z,3.43
2023-03-11T17:14:03.312Z,3.39
2023-03-11T17:16:40.302Z,3.43
2023-03-11T17:19:06.853Z,3.43
2023-03-11T17:21:33.409Z,3.40
2023-03-11T17:24:00.139Z,3.39
2023-03-11T17:26:30.737Z,3.37
2023-03-11T17:28:57.353Z,3.35
2023-03-11T17:31:24.192Z,3.36
2023-03-11T17:33:50.867Z,3.28
2023-03-11T17:36:18.650Z,3.17
2023-03-11T17:38:46.771Z,3.13
2023-03-11T17:41:16.187Z,3.06
2023-03-11T17:43:43.746Z,2.99
2023-03-11T17:46:14.394Z,2.94
2023-03-11T17:48:42.141Z,2.90
2023-03-11T17:51:13.833Z,2.88
2023-03-11T17:53:43.291Z,2.92
2023-03-11T17:56:12.883Z,2.88
2023-03-11T17:58:39.568Z,2.83
2023-03-11T18:01:10.809Z,2.84
2023-03-11T18:03:37.390Z,2.83
2023-03-11T18:06:06.182Z,2.83
2023-03-11T18:08:33.266Z,2.83
2023-03-11T18:11:05.758Z,2.82
2023-03-11T18:13:33.405Z,2.83
2023-03-11T18:16:02.723Z,2.87
2023-03-11T18:18:31.094Z,2.82
2023-03-11T18:21:11.266Z,2.83
2023-03-11T18:23:38.715Z,2.83
2023-03-11T18:26:07.368Z,2.79
2023-03-11T18:28:34.372Z,2.80
2023-03-11T18:31:13.175Z,2.77
2023-03-11T18:33:40.244Z,2.77
2023-03-11T18:36:12.845Z,2.67
2023-03-11T18:38:39.605Z,2.65
2023-03-11T18:41:06.118Z,2.65
2023-03-11T18:43:32.608Z,2.64
2023-03-11T18:46:00.717Z,2.64
2023-03-11T18:48:27.583Z,2.56
2023-03-11T18:50:55.446Z,2.49
2023-03-11T18:53:24.839Z,2.38
2023-03-11T18:55:52.528Z,2.30
2023-03-11T18:58:19.846Z,2.23
2023-03-11T19:00:46.439Z,2.14
2023-03-11T19:03:13.188Z,2.08
2023-03-11T19:05:39.704Z,2.11
2023-03-11T19:08:06.257Z,2.08
2023-03-11T19:20:23.982Z,1.85
2023-03-11T19:22:50.465Z,1.58
2023-03-11T19:25:17.013Z,1.38
2023-03-11T19:27:43.484Z,1.28
2023-03-11T19:30:10.744Z,1.22
2023-03-11T19:32:37.264Z,1.10
2023-03-11T19:35:04.063Z,0.97
2023-03-11T19:37:30.789Z,0.91
2023-03-11T19:39:57.271Z,0.90
2023-03-11T19:42:23.833Z,0.87
2023-03-11T19:44:50.376Z,0.80
2023-03-11T19:47:16.913Z,0.78
2023-03-11T19:49:43.407Z,0.78
2023-03-11T19:52:10.198Z,0.79
2023-03-11T19:54:37.020Z,0.76
2023-03-11T19:57:03.784Z,0.73
2023-03-11T19:59:30.571Z,0.66
2023-03-11T20:01:57.242Z,0.60
2023-03-11T20:04:23.869Z,0.58
2023-03-11T20:06:50.650Z,0.68
2023-03-11T20:09:17.719Z,0.76
2023-03-11T20:11:45.687Z,0.82
2023-03-11T20:14:12.870Z,0.87
2023-03-11T20:16:39.898Z,0.88
2023-03-11T20:19:07.289Z,0.83
2023-03-11T20:21:38.866Z,0.80
2023-03-11T20:24:05.640Z,0.82
2023-03-11T20:26:32.284Z,0.75
2023-03-11T20:28:58.912Z,0.62
2023-03-11T20:31:26.951Z,0.58
2023-03-11T20:33:53.914Z,0.63
2023-03-11T20:36:24.343Z,0.65
2023-03-11T20:38:52.526Z,0.67
2023-03-11T20:41:19.722Z,0.62
2023-03-11T20:43:46.331Z,0.50
2023-03-11T20:46:13.128Z,0.34
2023-03-11T20:48:40.162Z,0.20
2023-03-11T20:51:11.667Z,0.13
2023-03-11T20:53:38.864Z,0.11
2023-03-11T20:56:09.123Z,0.16
2023-03-11T20:58:36.020Z,0.20
2023-03-11T21:01:23.841Z,0.15
2023-03-11T21:03:53.833Z,0.14
2023-03-11T21:06:23.591Z,0.18
2023-03-11T21:08:50.866Z,0.27
2023-03-11T21:11:18.238Z,0.27
2023-03-11T21:13:44.896Z,0.21
2023-03-11T21:16:11.531Z,0.23
2023-03-11T21:18:38.517Z,0.30
2023-03-11T21:21:08.365Z,0.30
2023-03-11T21:23:35.847Z,0.29
2023-03-11T21:26:03.913Z,0.28
2023-03-11T21:28:31.844Z,0.23
2023-03-11T21:31:04.196Z,0.21
2023-03-11T21:33:31.503Z,0.21
2023-03-11T21:36:00.739Z,0.16
2023-03-11T21:38:28.618Z,0.15
2023-03-11T21:41:09.310Z,0.19
2023-03-11T21:43:36.388Z,0.15
2023-03-11T21:46:05.029Z,0.07
2023-03-11T21:48:32.065Z,0.01
2023-03-11T21:50:58.847Z,-0.07
2023-03-11T21:53:25.557Z,-0.08
2023-03-11T21:55:53.126Z,-0.10
2023-03-11T21:58:20.755Z,-0.13
2023-03-11T22:00:47.533Z,-0.18
2023-03-11T22:03:14.230Z,-0.28
2023-03-11T22:05:41.076Z,-0.37
2023-03-11T22:08:07.701Z,-0.46
2023-03-11T22:10:34.436Z,-0.50
2023-03-11T22:13:01.051Z,-0.55
2023-03-11T22:15:27.826Z,-0.67
2023-03-11T22:17:54.506Z,-0.79
2023-03-11T22:20:21.421Z,-0.82
2023-03-11T22:22:47.945Z,-0.86
2023-03-11T22:25:14.586Z,-0.84
2023-03-11T22:27:41.113Z,-0.79
2023-03-11T22:30:08.812Z,-0.79
2023-03-11T22:32:35.433Z,-0.82
2023-03-11T22:35:02.000Z,-0.91
2023-03-11T22:37:28.491Z,-0.93
2023-03-11T22:39:55.029Z,-0.96
2023-03-11T22:42:21.532Z,-0.99
2023-03-11T22:44:48.081Z,-0.97
2023-03-11T22:47:14.687Z,-0.96
2023-03-11T22:49:41.189Z,-0.98
2023-03-11T22:52:07.712Z,-1.04
2023-03-11T22:54:34.304Z,-1.08
2023-03-11T22:57:00.912Z,-1.17
2023-03-11T22:59:30.591Z,-1.15
2023-03-11T23:01:57.154Z,-1.22
2023-03-11T23:04:23.737Z,-1.26
2023-03-11T23:06:50.382Z,-1.30
2023-03-11T23:09:16.851Z,-1.32
2023-03-11T23:11:43.362Z,-1.33
2023-03-11T23:14:09.874Z,-1.34
2023-03-11T23:16:36.380Z,-1.34
2023-03-11T23:19:02.978Z,-1.36
2023-03-11T23:21:32.174Z,-1.42
2023-03-11T23:24:02.880Z,-1.47
2023-03-11T23:26:30.053Z,-1.48
2023-03-11T23:28:56.911Z,-1.43
2023-03-11T23:31:25.538Z,-1.34
2023-03-11T23:33:52.197Z,-1.30
2023-03-11T23:36:21.978Z,-1.28
2023-03-11T23:38:50.740Z,-1.26
2023-03-11T23:41:19.242Z,-1.26
2023-03-11T23:43:46.302Z,-1.21
2023-03-11T23:46:13.295Z,-1.19
2023-03-11T23:48:40.999Z,-1.18
2023-03-11T23:51:09.236Z,-1.14
2023-03-11T23:53:36.489Z,-1.10
2023-03-11T23:56:08.708Z,-1.10
2023-03-11T23:58:35.245Z,-1.07
